createdAt,value
2022-10-11T00:01:02.752Z,8.60
2022-10-11T00:03:29.675Z,8.60
2022-10-11T00:05:56.646Z,8.70
2022-10-11T00:08:23.635Z,8.40
2022-10-11T00:10:57.648Z,8.50
2022-10-11T00:13:24.781Z,8.50
2022-10-11T00:15:51.665Z,8.50
2022-10-11T00:18:18.665Z,8.40
2022-10-11T00:20:45.779Z,8.60
2022-10-11T00:23:12.721Z,8.60
2022-10-11T00:25:39.605Z,8.60
2022-10-11T00:28:06.607Z,8.70
2022-10-11T00:30:34.050Z,8.80
2022-10-11T00:33:01.051Z,9.20
2022-10-11T00:35:27.908Z,8.60
2022-10-11T00:37:56.040Z,8.70
2022-10-11T00:40:23.014Z,8.80
2022-10-11T00:42:50.524Z,8.80
2022-10-11T00:45:26.986Z,8.50
2022-10-11T00:47:57.325Z,8.90
2022-10-11T00:50:24.817Z,8.80
2022-10-11T00:52:56.288Z,8.80
2022-10-11T00:55:23.135Z,8.80
2022-10-11T00:57:53.512Z,8.80
2022-10-11T01:00:20.653Z,8.80
2022-10-11T01:02:49.626Z,8.70
2022-10-11T01:05:32.451Z,8.70
2022-10-11T01:07:59.737Z,8.70
2022-10-11T01:10:27.178Z,8.70
2022-10-11T01:13:04.796Z,8.70
2022-10-11T01:15:49.300Z,8.70
2022-10-11T01:18:23.465Z,8.80
2022-10-11T01:21:09.074Z,8.80
2022-10-11T01:23:55.129Z,8.80
2022-10-11T01:26:40.749Z,11.80
2022-10-11T01:29:26.887Z,8.70
2022-10-11T01:32:12.870Z,8.70
2022-10-11T01:34:56.179Z,8.70
2022-10-11T01:37:41.822Z,8.80
2022-10-11T01:40:13.033Z,8.60
2022-10-11T01:42:40.307Z,8.90
2022-10-11T01:45:12.664Z,8.60
2022-10-11T01:47:39.509Z,8.60
2022-10-11T01:50:08.271Z,8.70
2022-10-11T01:52:37.436Z,8.60
2022-10-11T01:55:13.593Z,8.70
2022-10-11T01:57:46.540Z,8.70
2022-10-11T02:00:13.421Z,8.70
2022-10-11T02:02:59.167Z,8.60
2022-10-11T02:05:44.802Z,8.70
2022-10-11T02:08:20.860Z,8.60
2022-10-11T02:10:53.065Z,8.70
2022-10-11T02:13:23.196Z,8.70
2022-10-11T02:15:50.051Z,8.60
2022-10-11T02:18:18.510Z,8.60
2022-10-11T02:20:45.398Z,8.70
2022-10-11T02:23:13.622Z,8.70
2022-10-11T02:25:40.513Z,8.80
2022-10-11T02:28:09.588Z,8.70
2022-10-11T02:30:36.543Z,8.80
2022-10-11T02:33:03.795Z,8.70
2022-10-11T02:35:31.026Z,8.70
2022-10-11T02:37:59.376Z,8.70
2022-10-11T02:40:29.844Z,8.80
2022-10-11T02:42:59.973Z,8.80
2022-10-11T02:45:32.934Z,9.10
2022-10-11T02:47:59.781Z,8.70
2022-10-11T02:50:26.875Z,8.70
2022-10-11T02:52:53.779Z,8.70
2022-10-11T02:55:20.749Z,8.60
2022-10-11T02:57:47.664Z,8.60
2022-10-11T03:00:14.766Z,8.60
2022-10-11T03:02:41.679Z,8.60
2022-10-11T03:05:08.665Z,8.50
2022-10-11T03:07:35.558Z,8.50
2022-10-11T03:10:02.582Z,8.40
2022-10-11T03:12:29.430Z,8.40
2022-10-11T03:14:57.359Z,8.90
2022-10-11T03:17:36.205Z,8.20
2022-10-11T03:20:04.755Z,9.90
2022-10-11T03:22:31.590Z,8.30
2022-10-11T03:25:03.330Z,8.00
2022-10-11T03:27:31.238Z,8.00
2022-10-11T03:29:58.138Z,7.80
2022-10-11T03:32:25.089Z,7.60
2022-10-11T03:34:51.966Z,7.50
2022-10-11T03:37:19.107Z,7.40
2022-10-11T03:39:46.081Z,7.20
2022-10-11T03:42:13.352Z,7.20
2022-10-11T03:44:41.795Z,7.00
2022-10-11T03:47:08.695Z,7.00
2022-10-11T03:49:38.684Z,7.10
2022-10-11T03:52:09.258Z,7.20
2022-10-11T03:54:36.187Z,7.40
2022-10-11T03:57:03.077Z,7.40
2022-10-11T03:59:30.038Z,7.50
2022-10-11T04:01:57.270Z,7.60
2022-10-11T04:04:24.173Z,7.80
2022-10-11T04:06:51.047Z,7.70
2022-10-11T04:09:17.983Z,7.70
2022-10-11T04:11:44.923Z,7.50
2022-10-11T04:14:11.858Z,7.40
2022-10-11T04:16:41.654Z,7.40
2022-10-11T04:19:08.487Z,7.20
2022-10-11T04:21:35.333Z,6.90
2022-10-11T04:24:02.297Z,6.70
2022-10-11T04:26:29.185Z,6.60
2022-10-11T04:28:56.127Z,6.80
2022-10-11T04:31:23.160Z,7.00
2022-10-11T04:33:50.240Z,7.00
2022-10-11T04:36:17.134Z,7.10
2022-10-11T04:38:44.034Z,7.10
2022-10-11T04:41:12.282Z,7.20
2022-10-11T04:43:39.243Z,7.30
2022-10-11T04:46:06.926Z,7.40
2022-10-11T04:48:33.950Z,7.40
2022-10-11T04:51:00.893Z,7.40
2022-10-11T04:53:28.126Z,7.40
2022-10-11T04:56:02.609Z,7.20
2022-10-11T04:58:29.901Z,7.10
2022-10-11T05:00:56.729Z,7.00
2022-10-11T05:03:23.701Z,7.00
2022-10-11T05:05:50.701Z,6.90
2022-10-11T05:08:17.562Z,7.00
2022-10-11T05:10:54.416Z,6.90
2022-10-11T05:13:21.278Z,7.10
2022-10-11T05:15:48.162Z,7.30
2022-10-11T05:18:15.027Z,7.30
2022-10-11T05:20:41.851Z,7.30
2022-10-11T05:23:08.908Z,7.40
2022-10-11T05:25:36.135Z,7.50
2022-10-11T05:28:18.525Z,7.50
2022-10-11T05:30:46.666Z,7.40
2022-10-11T05:39:47.283Z,7.40
2022-10-11T05:42:18.310Z,7.10
2022-10-11T05:44:45.164Z,7.00
2022-10-11T05:47:12.006Z,6.90
2022-10-11T05:49:42.773Z,7.20
2022-10-11T05:55:34.834Z,7.30
2022-10-11T05:58:07.522Z,7.80
2022-10-11T06:00:38.151Z,7.50
2022-10-11T06:03:05.642Z,7.30
2022-10-11T06:05:32.558Z,7.30
2022-10-11T06:07:59.479Z,7.40
2022-10-11T06:10:26.531Z,7.40
2022-10-11T06:12:53.412Z,7.60
2022-10-11T06:15:20.382Z,7.50
2022-10-11T06:17:48.290Z,7.60
2022-10-11T06:20:15.441Z,7.70
2022-10-11T06:22:43.088Z,7.70
2022-10-11T06:25:09.942Z,7.80
2022-10-11T06:27:38.369Z,7.80
2022-10-11T06:30:06.096Z,7.80
2022-10-11T06:32:32.841Z,8.00
2022-10-11T06:34:59.714Z,7.90
2022-10-11T06:37:26.654Z,8.10
2022-10-11T06:39:54.820Z,8.10
2022-10-11T06:42:23.887Z,8.10
2022-10-11T06:44:51.037Z,8.20
2022-10-11T06:47:17.870Z,8.30
2022-10-11T06:49:44.800Z,8.40
2022-10-11T06:52:19.597Z,8.60
2022-10-11T06:54:47.860Z,9.60
2022-10-11T06:57:14.919Z,8.90
2022-10-11T06:59:44.919Z,8.90
2022-10-11T07:02:22.120Z,8.80
2022-10-11T07:05:05.015Z,9.30
2022-10-11T07:07:32.901Z,9.60
2022-10-11T07:10:01.822Z,9.00
2022-10-11T07:12:28.993Z,9.40
2022-10-11T07:14:59.595Z,9.50
2022-10-11T07:17:27.237Z,9.90
2022-10-11T07:19:54.152Z,9.50
2022-10-11T07:22:21.044Z,9.50
2022-10-11T07:24:49.238Z,9.40
2022-10-11T07:27:16.037Z,10.00
2022-10-11T07:29:46.319Z,10.20
2022-10-11T07:32:13.170Z,10.30
2022-10-11T07:34:39.981Z,10.70
2022-10-11T07:51:45.414Z,10.50
2022-10-11T07:54:17.318Z,11.40
2022-10-11T07:56:44.195Z,11.60
2022-10-11T07:59:14.510Z,11.60
2022-10-11T08:04:48.801Z,11.90
2022-10-11T08:07:16.602Z,11.90
2022-10-11T08:09:44.799Z,12.20
2022-10-11T08:12:11.723Z,12.30
2022-10-11T08:14:38.923Z,12.40
2022-10-11T08:17:05.949Z,12.50
2022-10-11T08:19:32.996Z,12.50
2022-10-11T08:22:00.061Z,12.60
2022-10-11T08:24:27.423Z,12.60
2022-10-11T08:26:54.359Z,12.70
2022-10-11T08:29:21.283Z,12.80
2022-10-11T08:31:48.375Z,12.80
2022-10-11T08:34:15.656Z,12.90
2022-10-11T08:36:42.804Z,13.00
2022-10-11T08:39:12.708Z,13.30
2022-10-11T08:41:39.851Z,13.40
2022-10-11T08:44:26.978Z,13.60
2022-10-11T08:47:00.932Z,13.70
2022-10-11T08:49:30.542Z,13.70
2022-10-11T08:52:02.784Z,13.80
2022-10-11T08:54:32.832Z,13.80
2022-10-11T08:57:00.942Z,13.80
2022-10-11T08:59:33.211Z,13.70
2022-10-11T09:02:20.301Z,13.80
2022-10-11T09:04:47.648Z,13.90
2022-10-11T09:07:21.406Z,14.00
2022-10-11T09:09:54.071Z,14.40
2022-10-11T09:12:21.174Z,14.50
2022-10-11T09:14:50.933Z,14.70
2022-10-11T09:17:17.902Z,14.60
2022-10-11T09:19:47.749Z,14.50
2022-10-11T09:22:20.948Z,14.40
2022-10-11T09:25:00.072Z,14.40
2022-10-11T09:28:00.874Z,14.20
2022-10-11T09:30:19.640Z,14.40
2022-10-11T09:33:01.914Z,14.70
2022-10-11T09:35:28.878Z,14.90
2022-10-11T09:38:06.328Z,15.00
2022-10-11T09:40:39.271Z,15.10
2022-10-11T09:43:06.212Z,15.30
2022-10-11T09:45:33.368Z,15.40
2022-10-11T09:48:00.805Z,15.50
2022-10-11T09:50:29.910Z,15.60
2022-10-11T09:52:57.989Z,15.70
2022-10-11T09:55:36.238Z,15.90
2022-10-11T09:58:03.893Z,16.20
2022-10-11T10:00:34.277Z,16.40
2022-10-11T10:03:02.858Z,16.50
2022-10-11T10:05:30.671Z,16.60
2022-10-11T10:08:01.583Z,16.60
2022-10-11T10:10:34.374Z,16.50
2022-10-11T10:13:05.141Z,16.70
2022-10-11T10:15:36.028Z,16.60
2022-10-11T10:18:03.037Z,16.40
2022-10-11T10:20:33.417Z,16.20
2022-10-11T10:23:08.133Z,16.10
2022-10-11T10:25:38.439Z,16.10
2022-10-11T10:28:17.237Z,16.20
2022-10-11T10:30:59.608Z,16.20
2022-10-11T10:33:27.937Z,16.10
2022-10-11T10:36:02.608Z,16.10
2022-10-11T10:38:32.971Z,16.10
2022-10-11T10:41:06.700Z,16.10
2022-10-11T10:43:34.524Z,16.40
2022-10-11T10:46:06.184Z,16.60
2022-10-11T10:49:18.760Z,16.70
2022-10-11T10:51:45.111Z,16.70
2022-10-11T10:54:23.184Z,16.80
2022-10-11T10:56:52.284Z,17.00
2022-10-11T10:59:22.287Z,16.90
2022-10-11T11:02:35.063Z,16.90
2022-10-11T11:07:40.632Z,16.80
2022-10-11T11:10:10.570Z,16.80
2022-10-11T11:13:08.034Z,16.80
2022-10-11T11:15:38.363Z,16.80
2022-10-11T11:18:31.820Z,17.10
2022-10-11T11:21:07.898Z,17.10
2022-10-11T11:23:41.276Z,17.10
2022-10-11T11:26:09.100Z,17.40
2022-10-11T11:28:36.090Z,17.20
2022-10-11T11:31:15.391Z,17.10
2022-10-11T11:33:57.580Z,17.00
2022-10-11T11:36:39.398Z,16.80
2022-10-11T11:39:07.075Z,16.60
2022-10-11T11:41:38.468Z,16.60
2022-10-11T11:44:31.846Z,16.60
2022-10-11T11:47:00.787Z,16.70
2022-10-11T11:49:32.274Z,16.80
2022-10-11T11:51:59.595Z,16.60
2022-10-11T11:54:29.828Z,16.30
2022-10-11T11:57:15.461Z,16.40
2022-10-11T11:59:53.339Z,16.80
2022-10-11T12:02:39.227Z,16.90
2022-10-11T12:05:07.143Z,16.70
2022-10-11T12:07:35.478Z,16.70
2022-10-11T12:10:17.000Z,17.00
2022-10-11T12:12:43.983Z,17.40
2022-10-11T12:15:26.388Z,17.40
2022-10-11T12:17:53.241Z,17.50
2022-10-11T12:20:28.887Z,18.10
2022-10-11T12:22:58.522Z,18.80
2022-10-11T12:25:33.441Z,19.30
2022-10-11T12:28:01.570Z,19.70
2022-10-11T12:30:47.206Z,19.50
2022-10-11T12:33:14.197Z,19.60
2022-10-11T12:35:47.813Z,20.10
2022-10-11T12:38:16.105Z,20.40
2022-10-11T12:40:43.285Z,20.00
2022-10-11T12:43:12.253Z,19.80
2022-10-11T12:45:39.507Z,19.90
2022-10-11T12:48:06.378Z,20.20
2022-10-11T12:50:42.614Z,20.70
2022-10-11T12:53:32.752Z,21.10
2022-10-11T12:56:11.751Z,21.00
2022-10-11T12:58:41.557Z,21.30
2022-10-11T13:01:09.884Z,21.00
2022-10-11T13:03:55.522Z,21.30
2022-10-11T13:06:26.370Z,20.50
2022-10-11T13:09:07.464Z,20.30
2022-10-11T13:11:35.599Z,18.90
2022-10-11T13:14:06.786Z,18.50
2022-10-11T13:16:52.516Z,18.40
2022-10-11T13:19:21.625Z,18.20
2022-10-11T13:21:50.586Z,18.20
2022-10-11T13:24:17.902Z,18.10
2022-10-11T13:26:45.764Z,17.80
2022-10-11T13:29:27.819Z,18.10
2022-10-11T13:31:54.660Z,19.00
2022-10-11T13:34:23.468Z,19.50
2022-10-11T13:36:59.719Z,20.90
2022-10-11T13:39:31.460Z,21.70
2022-10-11T13:41:58.642Z,22.40
2022-10-11T13:44:25.605Z,22.60
2022-10-11T13:46:52.665Z,22.20
2022-10-11T13:49:26.903Z,21.30
2022-10-11T13:52:00.519Z,21.10
2022-10-11T13:54:49.348Z,21.30
2022-10-11T13:57:16.182Z,20.90
2022-10-11T13:59:43.107Z,19.90
2022-10-11T14:02:16.293Z,19.20
2022-10-11T14:04:43.142Z,19.00
2022-10-11T14:07:25.410Z,19.00
2022-10-11T14:09:52.337Z,18.90
2022-10-11T14:12:32.208Z,18.60
2022-10-11T14:14:59.906Z,18.20
2022-10-11T14:17:34.690Z,18.00
2022-10-11T14:20:19.924Z,17.80
2022-10-11T14:22:47.061Z,17.80
2022-10-11T14:25:13.940Z,17.60
2022-10-11T14:27:42.682Z,17.40
2022-10-11T14:30:31.201Z,17.30
2022-10-11T14:33:00.175Z,17.10
2022-10-11T14:35:28.349Z,17.00
2022-10-11T14:37:55.290Z,16.90
2022-10-11T14:40:22.955Z,16.80
2022-10-11T14:42:50.050Z,17.20
2022-10-11T14:45:17.198Z,17.80
2022-10-11T14:47:44.267Z,17.80
2022-10-11T14:50:27.180Z,18.30
2022-10-11T14:52:54.269Z,18.60
2022-10-11T14:55:21.146Z,18.00
2022-10-11T14:57:48.027Z,17.50
2022-10-11T15:00:20.799Z,17.10
2022-10-11T15:02:47.698Z,16.90
2022-10-11T15:05:14.653Z,16.60
2022-10-11T15:07:41.522Z,16.40
2022-10-11T15:10:22.169Z,16.40
2022-10-11T15:12:49.742Z,16.50
2022-10-11T15:15:23.411Z,16.40
2022-10-11T15:17:51.459Z,16.10
2022-10-11T15:20:23.517Z,15.80
2022-10-11T15:22:51.005Z,15.80
2022-10-11T15:25:17.843Z,15.40
2022-10-11T15:27:44.745Z,15.20
2022-10-11T15:30:15.517Z,15.10
2022-10-11T15:32:42.380Z,15.00
2022-10-11T15:35:09.363Z,14.90
2022-10-11T15:37:37.546Z,14.80
2022-10-11T15:40:18.343Z,14.80
2022-10-11T15:42:45.731Z,14.70
2022-10-11T15:45:12.573Z,14.60
2022-10-11T15:47:39.933Z,14.50
2022-10-11T15:50:12.862Z,14.50
2022-10-11T15:52:40.285Z,14.40
2022-10-11T15:55:07.263Z,14.40
2022-10-11T15:57:34.143Z,14.40
2022-10-11T16:00:01.097Z,14.30
2022-10-11T16:02:28.088Z,14.10
2022-10-11T16:04:55.207Z,13.90
2022-10-11T16:07:22.227Z,13.80
2022-10-11T16:09:49.359Z,13.80
2022-10-11T16:12:16.395Z,13.70
2022-10-11T16:14:47.093Z,13.60
2022-10-11T16:17:14.298Z,13.40
2022-10-11T16:19:41.416Z,13.30
2022-10-11T16:22:08.450Z,13.20
2022-10-11T16:24:35.374Z,13.10
2022-10-11T16:27:02.357Z,13.00
2022-10-11T16:29:29.363Z,13.00
2022-10-11T16:31:56.299Z,12.70
2022-10-11T16:34:23.994Z,12.40
2022-10-11T16:36:50.814Z,12.40
2022-10-11T16:39:18.544Z,12.30
2022-10-11T16:41:45.436Z,12.10
2022-10-11T16:44:16.054Z,12.00
2022-10-11T16:46:43.247Z,12.00
2022-10-11T16:49:10.164Z,12.00
2022-10-11T16:51:36.989Z,12.00
2022-10-11T16:54:03.918Z,11.80
2022-10-11T16:56:33.918Z,11.60
2022-10-11T16:59:03.679Z,11.80
2022-10-11T17:01:31.082Z,11.60
2022-10-11T17:03:58.707Z,11.70
2022-10-11T17:06:29.721Z,11.40
2022-10-11T17:15:43.768Z,11.50
2022-10-11T17:21:33.159Z,12.60
2022-10-11T17:24:02.052Z,10.60
2022-10-11T17:26:35.386Z,10.60
2022-10-11T17:29:10.750Z,10.60
2022-10-11T17:31:41.022Z,10.00
2022-10-11T17:53:58.975Z,12.20
2022-10-11T18:02:05.598Z,9.00
2022-10-11T18:04:37.262Z,9.90
2022-10-11T18:07:04.093Z,8.80
2022-10-11T18:09:32.602Z,8.50
2022-10-11T18:12:00.227Z,8.50
2022-10-11T18:14:27.445Z,8.70
2022-10-11T18:16:54.498Z,8.80
2022-10-11T18:19:21.281Z,8.60
2022-10-11T18:21:48.886Z,8.60
2022-10-11T18:24:18.326Z,8.60
2022-10-11T18:26:47.037Z,8.70
2022-10-11T18:29:13.950Z,8.80
2022-10-11T18:31:40.973Z,8.70
2022-10-11T18:34:10.817Z,8.90
2022-10-11T18:36:37.840Z,9.00
2022-10-11T18:39:05.722Z,9.10
2022-10-11T18:41:33.010Z,9.10
2022-10-11T18:44:01.157Z,9.10
2022-10-11T18:46:28.924Z,9.20
2022-10-11T18:48:56.044Z,9.30
2022-10-11T18:51:26.417Z,9.30
2022-10-11T18:53:53.800Z,9.60
2022-10-11T18:56:21.261Z,9.50
2022-10-11T18:58:48.894Z,9.50
2022-10-11T19:01:17.055Z,9.60
2022-10-11T19:03:44.475Z,9.50
2022-10-11T19:06:17.080Z,9.60
2022-10-11T19:08:46.488Z,9.60
2022-10-11T19:11:13.648Z,9.70
2022-10-11T19:13:40.665Z,9.70
2022-10-11T19:16:09.356Z,9.60
2022-10-11T19:18:40.441Z,9.50
2022-10-11T19:21:10.879Z,9.40
2022-10-11T19:23:39.573Z,9.30
2022-10-11T19:26:07.279Z,9.10
2022-10-11T19:28:34.802Z,8.90
2022-10-11T19:31:02.639Z,8.80
2022-10-11T19:33:29.629Z,8.80
2022-10-11T19:35:56.742Z,8.60
2022-10-11T19:38:23.926Z,8.30
2022-10-11T19:40:51.482Z,8.00
2022-10-11T19:43:18.403Z,7.80
2022-10-11T19:45:45.292Z,7.80
2022-10-11T19:48:12.202Z,7.70
2022-10-11T19:50:39.184Z,7.80
2022-10-11T19:53:06.411Z,7.90
2022-10-11T19:55:36.710Z,8.20
2022-10-11T19:58:08.155Z,8.40
2022-10-11T20:00:35.254Z,8.30
2022-10-11T20:03:02.165Z,8.30
2022-10-11T20:05:31.649Z,8.30
2022-10-11T20:07:58.483Z,8.20
2022-10-11T20:10:25.712Z,8.20
2022-10-11T20:12:52.539Z,8.20
2022-10-11T20:15:19.534Z,8.20
2022-10-11T20:17:49.222Z,8.20
2022-10-11T20:20:16.741Z,8.30
2022-10-11T20:22:43.572Z,8.30
2022-10-11T20:25:11.003Z,8.20
2022-10-11T20:27:38.164Z,8.20
2022-10-11T20:30:05.302Z,8.10
2022-10-11T20:32:32.282Z,8.20
2022-10-11T20:34:59.178Z,8.20
2022-10-11T20:37:26.272Z,8.20
2022-10-11T20:39:53.185Z,8.10
2022-10-11T20:42:20.290Z,8.10
2022-10-11T20:44:48.810Z,8.00
2022-10-11T20:47:18.666Z,8.20
2022-10-11T20:49:45.608Z,8.10
2022-10-11T20:52:12.614Z,8.10
2022-10-11T20:54:41.765Z,8.10
2022-10-11T20:57:08.813Z,8.10
2022-10-11T20:59:35.910Z,7.30
2022-10-11T21:02:02.857Z,8.20
2022-10-11T21:04:33.038Z,8.20
2022-10-11T21:06:59.999Z,8.10
2022-10-11T21:09:28.154Z,8.10
2022-10-11T21:11:55.093Z,8.20
2022-10-11T21:14:22.217Z,8.00
2022-10-11T21:16:49.066Z,7.90
2022-10-11T21:19:16.256Z,8.00
2022-10-11T21:21:44.054Z,8.00
2022-10-11T21:24:10.908Z,8.00
2022-10-11T21:26:37.835Z,7.90
2022-10-11T21:29:04.790Z,7.90
2022-10-11T21:31:34.369Z,7.80
2022-10-11T21:34:01.882Z,7.80
2022-10-11T21:36:28.961Z,7.80
2022-10-11T21:38:56.530Z,7.70
2022-10-11T21:41:23.883Z,7.70
2022-10-11T21:43:50.807Z,7.70
2022-10-11T21:46:18.858Z,7.60
2022-10-11T21:48:45.849Z,7.60
2022-10-11T21:51:16.325Z,7.50
2022-10-11T21:53:43.210Z,7.50
2022-10-11T21:56:10.077Z,7.40
2022-10-11T21:58:37.455Z,7.30
2022-10-11T22:01:04.434Z,7.30
2022-10-11T22:03:31.278Z,7.30
2022-10-11T22:05:58.108Z,7.20
2022-10-11T22:08:24.964Z,7.20
2022-10-11T22:10:57.505Z,7.10
2022-10-11T22:13:24.774Z,7.10
2022-10-11T22:15:51.700Z,7.10
2022-10-11T22:18:18.694Z,7.10
2022-10-11T22:20:45.678Z,7.00
2022-10-11T22:23:12.619Z,7.10
2022-10-11T22:25:39.499Z,6.90
2022-10-11T22:28:06.426Z,6.90
2022-10-11T22:30:33.270Z,7.00
2022-10-11T22:33:00.117Z,6.90
2022-10-11T22:35:27.001Z,6.80
2022-10-11T22:37:54.035Z,6.60
2022-10-11T22:40:20.939Z,6.70
2022-10-11T22:42:48.093Z,6.20
2022-10-11T22:45:15.008Z,6.10
2022-10-11T22:47:42.017Z,5.90
2022-10-11T22:50:09.246Z,5.70
2022-10-11T22:52:36.146Z,5.50
2022-10-11T22:55:03.005Z,5.50
2022-10-11T22:57:29.843Z,5.50
2022-10-11T22:59:56.758Z,5.40
2022-10-11T23:02:23.772Z,5.40
2022-10-11T23:04:50.640Z,5.30
2022-10-11T23:07:17.740Z,5.40
2022-10-11T23:09:44.598Z,5.40
2022-10-11T23:12:11.591Z,5.20
2022-10-11T23:14:38.464Z,5.30
2022-10-11T23:17:05.767Z,5.20
2022-10-11T23:19:32.679Z,5.10
2022-10-11T23:21:59.708Z,5.10
2022-10-11T23:24:26.540Z,4.80
2022-10-11T23:26:53.547Z,5.20
2022-10-11T23:29:20.417Z,5.20
2022-10-11T23:31:47.376Z,5.20
2022-10-11T23:34:14.788Z,5.50
2022-10-11T23:36:41.635Z,5.60
2022-10-11T23:39:10.011Z,5.70
2022-10-11T23:41:36.943Z,5.80
2022-10-11T23:44:03.813Z,5.90
2022-10-11T23:46:30.641Z,5.90
2022-10-11T23:48:57.551Z,5.90
2022-10-11T23:51:26.565Z,6.30
2022-10-11T23:53:53.530Z,6.10
2022-10-11T23:56:20.403Z,6.00
2022-10-11T23:58:47.466Z,6.00
